createdAt,value
2022-11-24T00:02:56.610Z,3.50
2022-11-24T00:08:18.523Z,4.57
2022-11-24T00:13:40.578Z,2.05
2022-11-24T00:19:04.377Z,3.47
2022-11-24T00:24:26.002Z,6.25
2022-11-24T00:29:47.640Z,5.35
2022-11-24T00:35:09.389Z,3.45
2022-11-24T00:40:34.987Z,3.67
2022-11-24T00:45:57.154Z,3.92
2022-11-24T00:51:21.369Z,3.05
2022-11-24T00:56:43.205Z,3.00
2022-11-24T01:02:04.922Z,2.97
2022-11-24T01:07:26.724Z,4.25
2022-11-24T01:12:48.459Z,2.33
2022-11-24T01:18:10.174Z,2.47
2022-11-24T01:23:32.668Z,4.18
2022-11-24T01:28:56.368Z,2.97
2022-11-24T01:34:18.056Z,3.95
2022-11-24T01:39:39.815Z,2.53
2022-11-24T01:45:29.994Z,3.25
2022-11-24T01:50:57.758Z,5.22
2022-11-24T01:56:20.112Z,2.13
2022-11-24T02:01:41.872Z,1.90
2022-11-24T02:07:06.977Z,3.03
2022-11-24T02:12:28.968Z,1.90
2022-11-24T02:17:50.665Z,2.75
2022-11-24T02:23:24.996Z,3.70
2022-11-24T02:28:47.602Z,2.72
2022-11-24T02:34:09.251Z,2.65
2022-11-24T02:39:30.939Z,2.65
2022-11-24T02:44:57.568Z,1.45
2022-11-24T02:50:19.644Z,3.22
2022-11-24T02:55:41.573Z,2.88
2022-11-24T03:01:03.427Z,2.83
2022-11-24T03:06:25.113Z,4.47
2022-11-24T03:11:46.843Z,4.50
2022-11-24T03:17:08.684Z,4.10
2022-11-24T03:22:30.339Z,4.50
2022-11-24T03:27:52.076Z,3.67
2022-11-24T03:33:13.732Z,4.82
2022-11-24T03:38:35.582Z,3.42
2022-11-24T03:43:57.287Z,6.88
2022-11-24T03:49:19.102Z,3.15
2022-11-24T03:54:41.010Z,3.22
2022-11-24T04:00:02.783Z,3.95
2022-11-24T04:05:25.404Z,4.13
2022-11-24T04:10:51.408Z,2.75
2022-11-24T04:16:13.215Z,2.88
2022-11-24T04:21:35.025Z,4.30
2022-11-24T04:26:56.668Z,3.25
2022-11-24T04:32:18.554Z,3.83
2022-11-24T04:37:40.826Z,3.38
2022-11-24T04:43:02.508Z,4.50
2022-11-24T04:48:24.182Z,2.67
2022-11-24T04:53:46.087Z,3.28
2022-11-24T04:59:08.609Z,2.83
2022-11-24T05:04:30.551Z,2.67
2022-11-24T05:10:10.684Z,2.25
2022-11-24T05:15:32.416Z,2.38
2022-11-24T05:20:54.095Z,3.40
2022-11-24T05:26:15.792Z,1.90
2022-11-24T05:31:37.574Z,3.58
2022-11-24T05:37:03.217Z,1.90
2022-11-24T05:48:15.249Z,2.38
2022-11-24T05:53:36.907Z,2.40
2022-11-24T05:58:58.549Z,2.00
2022-11-24T06:04:20.192Z,3.58
2022-11-24T06:09:43.203Z,2.55
2022-11-24T06:15:05.364Z,1.77
2022-11-24T06:20:31.320Z,1.85
2022-11-24T06:25:54.387Z,2.15
2022-11-24T06:31:16.173Z,5.05
2022-11-24T06:36:38.758Z,3.90
2022-11-24T06:42:00.604Z,3.45
2022-11-24T06:47:22.241Z,5.85
2022-11-24T06:52:43.880Z,4.93
2022-11-24T06:58:05.563Z,2.83
2022-11-24T07:03:27.549Z,5.38
2022-11-24T07:08:50.145Z,5.35
2022-11-24T07:14:11.882Z,3.40
2022-11-24T07:19:33.629Z,4.15
2022-11-24T07:24:55.366Z,3.38
2022-11-24T07:30:17.326Z,3.42
2022-11-24T07:35:39.008Z,1.02
2022-11-24T07:41:02.451Z,2.72
2022-11-24T07:46:24.259Z,6.60
2022-11-24T07:51:46.132Z,3.83
2022-11-24T07:57:07.768Z,1.88
2022-11-24T08:02:29.427Z,3.97
2022-11-24T08:07:51.125Z,3.33
2022-11-24T08:13:13.122Z,3.08
2022-11-24T08:18:35.758Z,3.00
2022-11-24T08:23:58.040Z,2.70
2022-11-24T08:29:19.751Z,3.40
2022-11-24T08:34:41.401Z,1.60
2022-11-24T08:40:03.184Z,1.90
2022-11-24T08:45:25.796Z,1.15
2022-11-24T08:50:47.570Z,2.13
2022-11-24T08:56:11.175Z,2.72
2022-11-24T09:01:33.002Z,2.97
2022-11-24T09:06:54.876Z,3.88
2022-11-24T09:12:16.707Z,2.42
2022-11-24T09:17:38.439Z,3.30
2022-11-24T09:23:00.171Z,3.35
2022-11-24T09:28:21.850Z,2.47
2022-11-24T09:33:44.690Z,1.55
2022-11-24T09:39:06.544Z,3.38
2022-11-24T09:44:49.568Z,4.00
2022-11-24T09:50:13.873Z,3.20
2022-11-24T09:55:38.636Z,1.73
2022-11-24T10:01:00.579Z,3.83
2022-11-24T10:06:34.831Z,2.15
2022-11-24T10:12:16.575Z,2.22
2022-11-24T10:18:03.157Z,4.10
2022-11-24T10:23:44.551Z,1.58
2022-11-24T10:29:30.673Z,3.40
2022-11-24T10:34:54.289Z,3.13
2022-11-24T10:40:55.501Z,3.38
2022-11-24T10:46:19.814Z,1.95
2022-11-24T10:52:01.544Z,2.80
2022-11-24T10:57:34.591Z,1.85
2022-11-24T11:03:19.733Z,4.57
2022-11-24T11:08:41.448Z,2.80
2022-11-24T11:14:08.998Z,2.80
2022-11-24T11:19:50.933Z,2.25
2022-11-24T11:25:13.555Z,1.63
2022-11-24T11:36:17.317Z,4.20
2022-11-24T11:41:45.033Z,3.30
2022-11-24T11:47:27.955Z,2.97
2022-11-24T11:53:27.371Z,2.22
2022-11-24T11:58:51.937Z,4.03
2022-11-24T12:04:21.396Z,2.65
2022-11-24T12:09:55.291Z,3.60
2022-11-24T12:15:48.123Z,5.75
2022-11-24T12:21:27.021Z,5.22
2022-11-24T12:26:52.564Z,3.13
2022-11-24T12:32:26.048Z,3.42
2022-11-24T12:37:58.326Z,2.67
2022-11-24T12:43:39.020Z,1.98
2022-11-24T12:49:08.811Z,3.28
2022-11-24T12:54:38.838Z,3.22
2022-11-24T13:00:16.851Z,1.88
2022-11-24T13:06:01.389Z,2.25
2022-11-24T13:11:23.163Z,2.70
2022-11-24T13:17:30.042Z,3.40
2022-11-24T13:22:40.244Z,1.98
2022-11-24T13:28:04.096Z,1.92
2022-11-24T13:33:29.965Z,2.72
2022-11-24T13:38:53.071Z,3.65
2022-11-24T13:44:15.004Z,2.20
2022-11-24T13:49:48.877Z,4.07
2022-11-24T13:55:13.637Z,3.80
2022-11-24T14:00:58.451Z,1.63
2022-11-24T14:06:35.854Z,5.82
2022-11-24T14:12:03.847Z,3.85
2022-11-24T14:17:28.640Z,3.22
2022-11-24T14:22:51.245Z,1.90
2022-11-24T14:28:22.850Z,2.95
2022-11-24T14:33:44.526Z,2.00
2022-11-24T14:39:06.838Z,2.63
2022-11-24T14:44:31.560Z,3.13
2022-11-24T14:49:54.746Z,2.43
2022-11-24T14:55:30.869Z,2.38
2022-11-24T15:01:20.635Z,7.65
2022-11-24T15:06:44.335Z,3.63
2022-11-24T15:12:17.006Z,4.43
2022-11-24T15:17:47.413Z,4.22
2022-11-24T15:23:25.408Z,5.00
2022-11-24T15:28:47.279Z,3.33
2022-11-24T15:34:14.309Z,5.97
2022-11-24T15:39:36.181Z,2.47
2022-11-24T15:44:57.822Z,5.75
2022-11-24T15:50:20.078Z,2.85
2022-11-24T15:55:41.747Z,3.13
2022-11-24T16:01:03.503Z,3.28
2022-11-24T16:06:25.758Z,4.78
2022-11-24T16:11:47.532Z,2.85
2022-11-24T16:17:09.137Z,4.82
2022-11-24T16:22:30.796Z,2.38
2022-11-24T16:27:52.886Z,3.25
2022-11-24T16:33:14.580Z,4.47
2022-11-24T16:38:36.240Z,3.90
2022-11-24T16:43:58.099Z,3.03
2022-11-24T16:49:19.985Z,3.03
2022-11-24T16:54:41.850Z,4.60
2022-11-24T17:00:05.492Z,5.63
2022-11-24T17:05:27.747Z,2.25
2022-11-24T17:10:49.435Z,2.65
2022-11-24T17:16:14.178Z,1.83
2022-11-24T17:21:35.986Z,2.30
2022-11-24T17:26:57.614Z,2.17
2022-11-24T17:32:19.298Z,5.00
2022-11-24T17:37:40.998Z,5.13
2022-11-24T17:43:02.893Z,9.20
2022-11-24T17:48:25.035Z,6.75
2022-11-24T17:53:49.442Z,8.13
2022-11-24T17:59:11.225Z,10.00
2022-11-24T18:04:34.082Z,10.82
2022-11-24T18:09:55.897Z,8.38
2022-11-24T18:15:17.692Z,11.13
2022-11-24T18:20:42.298Z,6.77
2022-11-24T18:26:05.755Z,5.90
2022-11-24T18:31:27.601Z,6.32
2022-11-24T18:36:52.256Z,4.97
2022-11-24T18:42:14.271Z,6.60
2022-11-24T18:47:35.920Z,5.32
2022-11-24T18:52:57.769Z,3.63
2022-11-24T18:58:22.148Z,12.52
2022-11-24T19:03:48.736Z,12.00
2022-11-24T19:09:18.990Z,14.63
2022-11-24T19:14:40.736Z,15.70
2022-11-24T19:20:02.806Z,13.93
2022-11-24T19:25:24.479Z,12.55
2022-11-24T19:30:46.234Z,13.85
2022-11-24T19:36:13.836Z,10.10
2022-11-24T19:41:35.633Z,6.32
2022-11-24T19:46:57.278Z,7.32
2022-11-24T19:52:18.971Z,12.85
2022-11-24T19:57:40.628Z,14.88
2022-11-24T20:03:02.369Z,11.65
2022-11-24T20:08:24.059Z,24.48
2022-11-24T20:13:47.212Z,21.42
2022-11-24T20:19:13.282Z,14.60
2022-11-24T20:24:35.057Z,10.82
2022-11-24T20:29:57.021Z,9.77
2022-11-24T20:35:18.983Z,13.35
2022-11-24T20:40:43.775Z,8.65
2022-11-24T20:46:08.654Z,10.63
2022-11-24T20:51:34.003Z,16.40
2022-11-24T20:56:55.644Z,13.23
2022-11-24T21:02:17.392Z,12.70
2022-11-24T21:07:39.131Z,8.90
2022-11-24T21:13:00.867Z,6.15
2022-11-24T21:18:22.530Z,10.63
2022-11-24T21:23:47.295Z,8.15
2022-11-24T21:29:11.668Z,8.27
2022-11-24T21:34:33.627Z,4.70
2022-11-24T21:39:55.420Z,9.55
2022-11-24T21:45:17.201Z,4.82
2022-11-24T21:50:39.074Z,5.07
2022-11-24T21:56:02.815Z,6.30
2022-11-24T22:01:28.243Z,8.38
2022-11-24T22:12:11.666Z,3.40
2022-11-24T22:17:33.302Z,7.72
2022-11-24T22:22:55.022Z,3.25
2022-11-24T22:28:16.663Z,3.25
2022-11-24T22:33:38.983Z,6.68
2022-11-24T22:39:05.791Z,1.60
2022-11-24T22:44:27.421Z,4.38
2022-11-24T22:49:49.187Z,3.33
2022-11-24T22:55:10.818Z,2.42
2022-11-24T23:00:32.459Z,3.67
2022-11-24T23:05:54.279Z,2.72
2022-11-24T23:11:25.850Z,3.42
2022-11-24T23:16:50.950Z,3.92
2022-11-24T23:22:12.650Z,5.25
2022-11-24T23:27:34.586Z,2.88
2022-11-24T23:32:56.231Z,3.03
2022-11-24T23:38:18.041Z,2.42
2022-11-24T23:43:41.933Z,2.05
2022-11-24T23:49:03.982Z,3.10
2022-11-24T23:54:25.619Z,3.30
2022-11-24T23:59:47.273Z,1.98
